Time;durP1;ratioP1;P1;durP2;ratioP2;P2;SDS_P1;SDS_P2;PMS_P1;PMS_P2;Temp;Humidity;BMP_temperature;BMP_pressure;BME280_temperature;BME280_humidity;BME280_pressure;Samples;Min_cycle;Max_cycle;Signal;HPM_P1;HPM_P2
2020/12/29 00:00:52;;;;;;;4.43;3.28;;;3.40;90.90;;;;;;5074789;28;20034;-77
2020/12/29 00:03:18;;;;;;;5.65;3.72;;;3.30;90.80;;;;;;5073757;28;20032;-77
2020/12/29 00:05:45;;;;;;;4.13;3.38;;;3.40;90.90;;;;;;5095693;28;20027;-84
2020/12/29 00:08:12;;;;;;;5.88;4.03;;;3.30;90.90;;;;;;5096495;28;20077;-84
2020/12/29 00:10:38;;;;;;;4.97;4.20;;;3.30;90.90;;;;;;5079021;28;20082;-84
2020/12/29 00:13:03;;;;;;;5.47;4.05;;;3.30;90.90;;;;;;5096568;28;20658;-84
2020/12/29 00:15:29;;;;;;;6.80;4.25;;;3.30;90.90;;;;;;5097340;28;20056;-84
2020/12/29 00:17:55;;;;;;;6.45;4.28;;;3.30;90.90;;;;;;5078803;28;20480;-77
2020/12/29 00:20:21;;;;;;;8.10;4.72;;;3.40;91.00;;;;;;5078539;28;20020;-76
2020/12/29 00:22:46;;;;;;;6.35;4.45;;;3.30;91.00;;;;;;5096701;28;20426;-76
2020/12/29 00:25:17;;;;;;;7.90;5.18;;;3.40;91.00;;;;;;5045216;28;20028;-77
2020/12/29 00:27:43;;;;;;;8.93;5.30;;;3.40;91.00;;;;;;5078316;28;20027;-77
2020/12/29 00:30:09;;;;;;;9.07;5.30;;;3.40;91.00;;;;;;5078278;28;20024;-76
2020/12/29 00:32:34;;;;;;;6.65;4.82;;;3.50;91.00;;;;;;5096436;28;20028;-76
2020/12/29 00:35:00;;;;;;;7.57;4.97;;;3.40;90.90;;;;;;5078193;28;20500;-76
2020/12/29 00:37:26;;;;;;;6.57;4.85;;;3.40;91.00;;;;;;5058091;28;20536;-76
2020/12/29 00:39:51;;;;;;;9.80;5.20;;;3.40;91.10;;;;;;5091956;28;20046;-84
2020/12/29 00:42:17;;;;;;;5.97;4.60;;;3.40;91.00;;;;;;5087989;28;20095;-84
2020/12/29 00:44:43;;;;;;;6.07;4.55;;;3.40;91.00;;;;;;5075415;28;20119;-84
2020/12/29 00:47:08;;;;;;;7.65;4.82;;;3.50;91.30;;;;;;5092212;28;20549;-84
2020/12/29 00:49:37;;;;;;;7.75;4.72;;;3.50;91.00;;;;;;5058615;28;20032;-84
2020/12/29 00:52:03;;;;;;;7.13;4.72;;;3.50;91.00;;;;;;5091958;28;20029;-84
2020/12/29 00:54:29;;;;;;;6.78;4.85;;;3.50;90.90;;;;;;5066149;28;20040;-85
2020/12/29 00:56:54;;;;;;;7.82;4.60;;;3.50;91.10;;;;;;5078174;28;20472;-84
2020/12/29 00:59:20;;;;;;;11.63;6.43;;;3.50;90.90;;;;;;5078240;28;20028;-84
2020/12/29 01:01:54;;;;;;;7.97;5.60;;;3.50;90.90;;;;;;5061612;28;20027;-85
2020/12/29 01:04:19;;;;;;;7.13;4.35;;;3.50;90.90;;;;;;5077496;28;20028;-77
2020/12/29 01:06:45;;;;;;;8.15;5.10;;;3.50;90.90;;;;;;5077222;28;20031;-77
2020/12/29 01:09:11;;;;;;;7.18;4.70;;;3.50;90.90;;;;;;5095283;28;20043;-77
2020/12/29 01:11:36;;;;;;;7.70;4.28;;;3.50;90.90;;;;;;5061004;28;20048;-77
2020/12/29 01:14:02;;;;;;;6.03;4.35;;;3.50;90.90;;;;;;5095515;28;20103;-77
2020/12/29 01:16:27;;;;;;;8.18;4.32;;;3.40;91.10;;;;;;5059878;28;20024;-77
2020/12/29 01:18:53;;;;;;;6.85;4.22;;;3.50;90.80;;;;;;5060795;28;20036;-77
2020/12/29 01:21:19;;;;;;;6.63;3.85;;;3.50;90.90;;;;;;5095309;28;20024;-77
2020/12/29 01:23:44;;;;;;;6.70;4.45;;;3.40;90.90;;;;;;5095613;28;20413;-77
2020/12/29 01:26:10;;;;;;;4.13;3.55;;;3.40;91.20;;;;;;5060511;28;20476;-77
2020/12/29 01:28:37;;;;;;;5.70;3.55;;;3.40;91.00;;;;;;5060728;28;20035;-77
2020/12/29 01:31:03;;;;;;;6.57;4.60;;;3.40;91.00;;;;;;5094966;28;20472;-77
2020/12/29 01:33:29;;;;;;;6.40;4.60;;;3.30;91.00;;;;;;5076785;28;20073;-77
2020/12/29 01:35:54;;;;;;;7.10;3.80;;;3.30;90.90;;;;;;5076753;28;20036;-77
2020/12/29 01:38:20;;;;;;;5.43;3.85;;;3.30;91.00;;;;;;5094837;28;20376;-77
2020/12/29 01:40:46;;;;;;;6.13;3.88;;;3.30;91.00;;;;;;5077002;28;20034;-77
2020/12/29 01:43:12;;;;;;;6.50;3.88;;;3.20;91.00;;;;;;5077177;28;20058;-77
2020/12/29 01:45:38;;;;;;;6.88;4.32;;;3.10;90.90;;;;;;5060040;28;20060;-77
2020/12/29 01:48:04;;;;;;;5.30;3.67;;;3.10;91.00;;;;;;5076948;28;20024;-77
2020/12/29 01:50:29;;;;;;;4.65;3.70;;;3.10;91.30;;;;;;5076837;28;20028;-77
2020/12/29 01:52:58;;;;;;;8.82;4.80;;;3.10;91.10;;;;;;5076812;28;20036;-77
2020/12/29 01:55:24;;;;;;;5.43;3.67;;;3.10;91.10;;;;;;5077367;28;20476;-85
2020/12/29 01:57:51;;;;;;;6.40;3.35;;;3.00;91.10;;;;;;5060475;28;20043;-85
2020/12/29 02:00:17;;;;;;;4.70;3.50;;;3.00;91.10;;;;;;5077146;28;20032;-85
2020/12/29 02:02:42;;;;;;;8.85;4.13;;;2.90;91.00;;;;;;5040046;28;20043;-76
2020/12/29 02:05:09;;;;;;;8.77;4.90;;;2.90;91.00;;;;;;5104345;28;20036;-76
2020/12/29 02:07:34;;;;;;;8.27;4.70;;;2.90;91.00;;;;;;5076804;28;20080;-76
2020/12/29 02:10:01;;;;;;;8.50;4.97;;;2.90;91.00;;;;;;5094599;28;20016;-76
2020/12/29 02:12:28;;;;;;;9.88;5.13;;;2.80;91.00;;;;;;5075862;28;20039;-76
2020/12/29 02:14:55;;;;;;;9.02;4.95;;;2.80;91.00;;;;;;5094389;28;20027;-76
2020/12/29 02:17:22;;;;;;;10.95;5.10;;;2.80;91.10;;;;;;5094149;28;20024;-76
2020/12/29 02:19:48;;;;;;;10.75;5.18;;;2.70;91.10;;;;;;5076173;28;20028;-76
2020/12/29 02:22:22;;;;;;;8.20;4.72;;;2.80;91.10;;;;;;5075978;28;20024;-85
2020/12/29 02:24:53;;;;;;;9.48;5.32;;;2.80;91.10;;;;;;5076594;28;20130;-84
2020/12/29 02:27:20;;;;;;;8.30;5.18;;;2.90;91.00;;;;;;5094651;28;20101;-84
2020/12/29 02:29:47;;;;;;;7.60;4.97;;;2.90;91.00;;;;;;5076290;28;20020;-85
2020/12/29 02:32:13;;;;;;;8.50;5.25;;;2.90;91.00;;;;;;5056899;28;20029;-84
2020/12/29 02:34:39;;;;;;;7.63;5.10;;;2.80;91.00;;;;;;5091305;28;20020;-85
2020/12/29 02:37:07;;;;;;;8.10;5.05;;;2.80;91.00;;;;;;5076657;28;20123;-84
2020/12/29 02:39:34;;;;;;;6.65;4.53;;;2.80;91.10;;;;;;5075423;28;20020;-75
2020/12/29 02:42:00;;;;;;;6.50;4.57;;;2.80;91.10;;;;;;5075790;28;20123;-76
2020/12/29 02:44:26;;;;;;;7.55;4.65;;;2.80;91.10;;;;;;5093626;28;20131;-76
2020/12/29 02:46:52;;;;;;;8.70;4.05;;;2.80;91.10;;;;;;5059204;28;20047;-76
2020/12/29 02:49:17;;;;;;;7.38;5.13;;;2.80;91.10;;;;;;5058814;28;20093;-76
2020/12/29 02:51:44;;;;;;;9.18;4.82;;;2.80;91.00;;;;;;5075218;28;20118;-77
2020/12/29 02:54:16;;;;;;;8.52;4.43;;;2.80;91.00;;;;;;5093403;28;20036;-76
2020/12/29 02:56:42;;;;;;;7.88;4.82;;;2.80;91.00;;;;;;5055551;28;20033;-84
2020/12/29 02:59:09;;;;;;;5.63;4.43;;;2.80;91.00;;;;;;5089541;28;20025;-84
2020/12/29 03:01:34;;;;;;;5.40;3.88;;;2.80;91.00;;;;;;5057484;28;20520;-84
2020/12/29 03:04:01;;;;;;;5.25;3.78;;;2.80;91.00;;;;;;5093731;28;20032;-85
2020/12/29 03:06:27;;;;;;;4.93;3.58;;;2.80;91.00;;;;;;5075440;28;20106;-84
2020/12/29 03:08:53;;;;;;;7.40;4.18;;;2.80;91.00;;;;;;5075958;28;20016;-85
2020/12/29 03:11:29;;;;;;;5.57;4.03;;;2.80;91.00;;;;;;5093392;28;20512;-85
2020/12/29 03:13:56;;;;;;;10.23;3.80;;;2.80;91.00;;;;;;5055623;28;20480;-85
2020/12/29 03:16:23;;;;;;;4.90;3.47;;;2.80;91.00;;;;;;5089525;28;20028;-83
2020/12/29 03:18:48;;;;;;;5.15;3.65;;;2.70;91.00;;;;;;5075050;28;20066;-85
2020/12/29 03:21:14;;;;;;;6.28;3.58;;;2.70;91.00;;;;;;5075667;28;20032;-85
2020/12/29 03:23:40;;;;;;;7.20;3.92;;;2.70;91.00;;;;;;5093422;28;20032;-85
2020/12/29 03:26:06;;;;;;;5.88;4.00;;;2.70;91.00;;;;;;5075921;28;20029;-85
2020/12/29 03:28:31;;;;;;;6.18;3.70;;;2.60;90.90;;;;;;5075569;28;20422;-85
2020/12/29 03:30:57;;;;;;;6.38;3.55;;;2.50;90.90;;;;;;5075631;28;20032;-76
2020/12/29 03:33:23;;;;;;;5.75;3.50;;;2.40;90.90;;;;;;5075226;28;20040;-76
2020/12/29 03:35:48;;;;;;;5.95;3.45;;;2.40;90.90;;;;;;5075450;28;20455;-76
2020/12/29 03:38:14;;;;;;;5.38;3.78;;;2.40;90.90;;;;;;5075114;28;20042;-76
2020/12/29 03:40:40;;;;;;;5.35;3.58;;;2.30;90.90;;;;;;5068842;28;20124;-76
2020/12/29 03:43:07;;;;;;;5.95;3.55;;;2.30;90.90;;;;;;5099385;28;20480;-76
2020/12/29 03:45:33;;;;;;;4.93;3.55;;;2.30;90.90;;;;;;5081798;28;20042;-76
2020/12/29 03:47:59;;;;;;;7.05;3.75;;;2.30;90.80;;;;;;5064800;28;20028;-76
2020/12/29 03:50:24;;;;;;;8.10;3.83;;;2.30;90.80;;;;;;5048302;28;20081;-76
2020/12/29 03:52:50;;;;;;;8.73;3.80;;;2.20;90.80;;;;;;5081247;28;20110;-76
2020/12/29 03:55:16;;;;;;;6.93;3.50;;;2.20;90.80;;;;;;5064565;28;20028;-76
2020/12/29 03:57:42;;;;;;;7.80;4.10;;;2.20;90.90;;;;;;5071712;28;20412;-76
2020/12/29 04:00:07;;;;;;;5.40;3.65;;;2.10;90.90;;;;;;5081552;28;20028;-76
2020/12/29 04:02:33;;;;;;;6.53;3.58;;;2.10;90.90;;;;;;5062815;28;20025;-76
2020/12/29 04:04:59;;;;;;;3.92;3.30;;;2.10;90.90;;;;;;5080899;28;20042;-76
2020/12/29 04:07:24;;;;;;;5.63;3.60;;;2.10;90.90;;;;;;5081094;28;20024;-76
2020/12/29 04:09:50;;;;;;;6.97;3.83;;;2.00;90.90;;;;;;5081480;28;20113;-76
2020/12/29 04:12:15;;;;;;;5.45;3.47;;;2.00;90.90;;;;;;5081450;28;20052;-76
2020/12/29 04:14:41;;;;;;;6.68;3.78;;;2.00;90.90;;;;;;5064595;28;20078;-76
2020/12/29 04:17:06;;;;;;;6.47;3.78;;;1.90;91.00;;;;;;5064822;28;20131;-76
2020/12/29 04:19:32;;;;;;;6.47;3.85;;;1.90;91.00;;;;;;5081775;28;20028;-77
2020/12/29 04:21:58;;;;;;;4.07;3.40;;;1.90;91.00;;;;;;5099321;28;20070;-77
2020/12/29 04:24:23;;;;;;;5.75;3.33;;;1.90;91.00;;;;;;5098977;28;20036;-77
2020/12/29 04:26:49;;;;;;;4.55;3.28;;;1.90;91.00;;;;;;5099414;28;20031;-84
2020/12/29 04:29:15;;;;;;;6.93;4.00;;;1.90;91.00;;;;;;5081805;28;20468;-85
2020/12/29 04:31:40;;;;;;;5.63;3.55;;;1.80;91.00;;;;;;5081898;28;20035;-77
2020/12/29 04:34:06;;;;;;;7.38;3.10;;;1.90;91.00;;;;;;5080859;28;20020;-77
2020/12/29 04:36:32;;;;;;;4.45;3.10;;;1.80;91.00;;;;;;5081000;28;20031;-77
2020/12/29 04:38:57;;;;;;;4.10;3.38;;;1.80;91.00;;;;;;5064347;28;20491;-77
2020/12/29 04:41:24;;;;;;;4.60;3.50;;;1.90;91.00;;;;;;5061087;28;20078;-77
2020/12/29 04:43:49;;;;;;;7.18;4.05;;;1.90;91.10;;;;;;5087611;28;20024;-77
2020/12/29 04:46:15;;;;;;;4.97;3.70;;;1.90;91.10;;;;;;5064227;28;20043;-77
2020/12/29 04:48:41;;;;;;;4.82;3.45;;;1.80;91.00;;;;;;5080865;28;20020;-77
2020/12/29 04:51:08;;;;;;;7.10;3.75;;;1.70;91.00;;;;;;5078259;28;20440;-77
2020/12/29 04:53:35;;;;;;;9.90;3.80;;;1.70;91.00;;;;;;5077660;28;20038;-77
2020/12/29 04:56:08;;;;;;;6.15;3.55;;;1.70;91.00;;;;;;5078852;28;20032;-85
2020/12/29 04:58:35;;;;;;;8.52;3.97;;;1.60;91.00;;;;;;5078687;28;20028;-85
2020/12/29 05:01:12;;;;;;;6.80;3.80;;;1.60;91.30;;;;;;5078339;28;20111;-85
2020/12/29 05:03:46;;;;;;;5.63;3.67;;;1.60;91.00;;;;;;5078895;28;20388;-85
2020/12/29 05:06:13;;;;;;;6.85;3.78;;;1.60;91.00;;;;;;5078887;28;20032;-85
2020/12/29 05:08:48;;;;;;;6.25;4.18;;;1.60;91.00;;;;;;5078930;28;20445;-85
2020/12/29 05:11:16;;;;;;;8.35;4.45;;;1.60;91.00;;;;;;5061977;28;20044;-83
2020/12/29 05:13:43;;;;;;;6.25;4.00;;;1.60;91.00;;;;;;5096197;28;20096;-85
2020/12/29 05:16:09;;;;;;;6.32;4.18;;;1.60;91.00;;;;;;5077974;28;20077;-86
2020/12/29 05:18:34;;;;;;;12.98;5.20;;;1.60;91.00;;;;;;5078316;28;20039;-85
2020/12/29 05:21:00;;;;;;;7.28;4.68;;;1.60;91.00;;;;;;5096287;28;20031;-86
2020/12/29 05:23:26;;;;;;;9.38;4.85;;;1.60;91.00;;;;;;5096748;28;20070;-85
2020/12/29 05:25:52;;;;;;;7.95;5.47;;;1.60;90.80;;;;;;5078461;28;20024;-85
2020/12/29 05:28:18;;;;;;;7.18;4.80;;;1.60;90.90;;;;;;5078305;28;20469;-85
2020/12/29 05:30:51;;;;;;;7.00;4.80;;;1.50;90.80;;;;;;5096049;28;20028;-85
2020/12/29 05:33:17;;;;;;;7.55;4.95;;;1.50;90.90;;;;;;5077905;28;20035;-86
2020/12/29 05:35:42;;;;;;;11.90;5.10;;;1.50;91.00;;;;;;5095338;28;20660;-85
2020/12/29 05:38:10;;;;;;;8.32;5.13;;;1.50;91.10;;;;;;5061176;28;20036;-85
2020/12/29 05:40:38;;;;;;;9.43;5.07;;;1.50;91.10;;;;;;5077668;28;20020;-85
2020/12/29 05:43:04;;;;;;;8.88;5.40;;;1.50;91.10;;;;;;5060933;28;20035;-85
2020/12/29 05:45:32;;;;;;;11.10;5.28;;;1.50;91.40;;;;;;5095161;28;20507;-85
2020/12/29 05:47:59;;;;;;;11.95;6.22;;;1.50;91.10;;;;;;5077355;28;20024;-85
2020/12/29 05:50:26;;;;;;;13.57;6.60;;;1.50;91.10;;;;;;5095553;28;20024;-85
2020/12/29 05:52:59;;;;;;;17.65;8.50;;;1.50;91.40;;;;;;5077673;28;20194;-85
2020/12/29 05:55:24;;;;;;;29.40;12.15;;;1.50;91.10;;;;;;5095390;28;20016;-86
2020/12/29 05:58:09;;;;;;;33.95;12.75;;;1.50;91.10;;;;;;5077669;28;20122;-85
2020/12/29 06:00:39;;;;;;;27.15;12.18;;;1.50;91.10;;;;;;5095502;28;20027;-84
2020/12/29 06:03:08;;;;;;;22.58;10.70;;;1.50;91.00;;;;;;5076989;28;20117;-85
2020/12/29 06:05:35;;;;;;;20.90;9.13;;;1.40;91.00;;;;;;5077413;28;20057;-85
2020/12/29 06:08:03;;;;;;;12.98;7.28;;;1.40;91.00;;;;;;5077292;28;20085;-85
2020/12/29 06:10:29;;;;;;;12.90;6.18;;;1.40;91.00;;;;;;5077543;28;20035;-85
2020/12/29 06:12:57;;;;;;;14.80;6.38;;;1.40;91.00;;;;;;5064810;28;20463;-86
2020/12/29 06:15:47;;;;;;;13.15;6.55;;;1.40;91.00;;;;;;5075164;28;20039;-85
2020/12/29 06:18:29;;;;;;;11.15;5.68;;;1.40;91.10;;;;;;5075017;28;20051;-85
2020/12/29 06:21:02;;;;;;;10.82;6.45;;;1.40;91.10;;;;;;5091428;28;20114;-85
2020/12/29 06:23:34;;;;;;;10.50;6.00;;;1.40;91.10;;;;;;5076544;28;20085;-84
2020/12/29 06:26:03;;;;;;;9.68;6.13;;;1.40;91.10;;;;;;5076839;28;20020;-84
2020/12/29 06:28:36;;;;;;;9.85;6.20;;;1.40;91.10;;;;;;5076847;28;20480;-84
2020/12/29 06:31:05;;;;;;;8.63;5.95;;;1.40;91.10;;;;;;5094321;28;20115;-84
2020/12/29 06:33:31;;;;;;;15.73;6.10;;;1.40;91.10;;;;;;5094387;28;20028;-78
2020/12/29 06:35:58;;;;;;;12.63;5.93;;;1.40;91.10;;;;;;5059424;28;20123;-78
2020/12/29 06:38:29;;;;;;;13.73;7.88;;;1.40;91.40;;;;;;5076443;28;20016;-79
2020/12/29 06:40:56;;;;;;;30.73;11.82;;;1.50;91.10;;;;;;5058991;28;20032;-78
2020/12/29 06:43:22;;;;;;;28.35;11.68;;;1.40;91.10;;;;;;5059362;28;20028;-78
2020/12/29 06:45:47;;;;;;;32.45;11.82;;;1.40;91.20;;;;;;5076091;28;20024;-79
2020/12/29 06:48:21;;;;;;;21.10;9.82;;;1.50;91.20;;;;;;5075813;28;20107;-78
2020/12/29 06:50:47;;;;;;;19.13;7.88;;;1.40;91.20;;;;;;5075756;28;20028;-79
2020/12/29 06:53:16;;;;;;;17.33;8.23;;;1.40;91.20;;;;;;5075794;28;20504;-78
2020/12/29 06:55:47;;;;;;;23.00;9.50;;;1.40;91.20;;;;;;5075776;28;20031;-78
2020/12/29 06:58:31;;;;;;;43.30;15.05;;;1.50;91.30;;;;;;5059085;28;20028;-78
2020/12/29 07:01:26;;;;;;;34.50;12.18;;;1.40;91.30;;;;;;5075607;28;20027;-78
2020/12/29 07:04:02;;;;;;;94.47;25.80;;;1.50;91.30;;;;;;5060742;28;20036;-83
2020/12/29 07:06:29;;;;;;;80.32;24.35;;;1.40;91.30;;;;;;5075951;28;20024;-83
2020/12/29 07:09:15;;;;;;;76.18;23.80;;;1.40;91.30;;;;;;5059198;28;20028;-83
2020/12/29 07:12:00;;;;;;;61.38;21.58;;;1.40;91.30;;;;;;5075838;28;20449;-83
2020/12/29 07:14:31;;;;;;;46.63;17.67;;;1.40;91.70;;;;;;5093362;28;20020;-82
2020/12/29 07:16:58;;;;;;;30.60;12.15;;;1.40;91.40;;;;;;5059262;28;20484;-83
2020/12/29 07:19:26;;;;;;;18.95;9.55;;;1.40;91.40;;;;;;5075723;28;20064;-83
2020/12/29 07:21:53;;;;;;;19.95;9.10;;;1.40;91.50;;;;;;5075662;28;20574;-83
2020/12/29 07:24:19;;;;;;;13.88;7.93;;;1.40;91.50;;;;;;5075719;28;20396;-83
2020/12/29 07:26:45;;;;;;;15.40;7.63;;;1.40;91.50;;;;;;5075788;28;20024;-82
2020/12/29 07:29:11;;;;;;;14.82;7.15;;;1.40;91.50;;;;;;5075761;28;20051;-83
2020/12/29 07:31:40;;;;;;;12.02;6.95;;;1.50;91.50;;;;;;5075503;28;20035;-83
2020/12/29 07:34:11;;;;;;;15.07;6.90;;;1.50;91.50;;;;;;5075485;28;20561;-83
2020/12/29 07:36:48;;;;;;;12.13;7.05;;;1.50;91.50;;;;;;5058877;28;20032;-82
2020/12/29 07:39:16;;;;;;;9.98;6.45;;;1.60;91.50;;;;;;5075261;28;20028;-82
2020/12/29 07:41:42;;;;;;;11.75;6.60;;;1.60;91.50;;;;;;5075526;28;20027;-83
2020/12/29 07:44:08;;;;;;;12.30;6.82;;;1.70;91.50;;;;;;5093389;28;20031;-83
2020/12/29 07:46:34;;;;;;;12.48;6.18;;;1.70;91.50;;;;;;5058540;28;20074;-80
2020/12/29 07:49:00;;;;;;;9.45;6.13;;;1.70;91.40;;;;;;5058784;28;20020;-81
2020/12/29 07:51:26;;;;;;;12.82;6.15;;;1.80;91.40;;;;;;5058489;28;20055;-81
2020/12/29 07:53:52;;;;;;;12.10;6.30;;;1.80;91.50;;;;;;5075402;28;20128;-81
2020/12/29 07:56:18;;;;;;;9.55;5.72;;;1.80;91.50;;;;;;5075040;28;20024;-81
2020/12/29 07:58:44;;;;;;;9.80;5.90;;;1.90;91.50;;;;;;5074913;28;20515;-81
2020/12/29 08:01:11;;;;;;;12.07;7.00;;;1.90;91.50;;;;;;5093137;28;20081;-81
2020/12/29 08:03:38;;;;;;;11.57;7.05;;;2.00;91.50;;;;;;5075001;28;20024;-81
2020/12/29 08:06:12;;;;;;;10.50;6.47;;;1.90;91.40;;;;;;5075043;28;20020;-81
2020/12/29 08:08:40;;;;;;;11.40;7.32;;;2.00;91.40;;;;;;5059676;28;20028;-81
2020/12/29 08:11:07;;;;;;;12.27;7.60;;;2.00;91.40;;;;;;5058519;28;20097;-81
2020/12/29 08:13:33;;;;;;;10.57;6.72;;;2.00;91.40;;;;;;5074598;28;20052;-81
2020/12/29 08:15:58;;;;;;;11.90;6.93;;;2.10;91.50;;;;;;5058388;28;20032;-81
2020/12/29 08:18:24;;;;;;;12.65;7.18;;;2.10;91.40;;;;;;5058151;28;20032;-81
2020/12/29 08:20:57;;;;;;;13.13;7.25;;;2.10;91.40;;;;;;5058152;28;20055;-81
2020/12/29 08:23:25;;;;;;;24.15;9.23;;;2.20;91.50;;;;;;5057659;28;20485;-81
2020/12/29 08:25:55;;;;;;;16.83;8.38;;;2.20;91.50;;;;;;5094559;28;20380;-81
2020/12/29 08:28:30;;;;;;;13.27;8.45;;;2.20;91.50;;;;;;5096512;28;20024;-81
2020/12/29 08:30:56;;;;;;;12.95;7.95;;;2.20;91.50;;;;;;5078123;28;20024;-80
2020/12/29 08:33:24;;;;;;;15.13;8.20;;;2.30;91.50;;;;;;5061883;28;20032;-81
2020/12/29 08:35:56;;;;;;;16.80;9.00;;;2.30;91.50;;;;;;5078507;28;20039;-81
2020/12/29 08:38:30;;;;;;;13.68;8.02;;;2.30;91.60;;;;;;5096456;28;20020;-81
2020/12/29 08:41:05;;;;;;;16.48;8.57;;;2.30;91.50;;;;;;5078156;28;20358;-82
2020/12/29 08:43:34;;;;;;;13.30;8.48;;;2.40;91.50;;;;;;5077833;28;20617;-81
2020/12/29 08:46:04;;;;;;;13.43;8.20;;;2.30;91.50;;;;;;5096040;28;20021;-81
2020/12/29 08:48:30;;;;;;;14.23;8.48;;;2.40;91.60;;;;;;5096252;28;20031;-81
2020/12/29 08:50:56;;;;;;;17.17;10.05;;;2.40;91.60;;;;;;5077947;28;20074;-81
2020/12/29 08:53:26;;;;;;;12.98;9.13;;;2.40;91.60;;;;;;5078089;28;20039;-81
2020/12/29 08:55:52;;;;;;;16.15;9.30;;;2.40;91.70;;;;;;5096309;28;20674;-80
2020/12/29 08:58:25;;;;;;;16.33;9.40;;;2.50;91.70;;;;;;5095875;28;20050;-81
2020/12/29 09:00:51;;;;;;;14.90;10.25;;;2.50;91.80;;;;;;5077783;28;20054;-81
2020/12/29 09:03:26;;;;;;;16.98;9.38;;;2.50;91.70;;;;;;5096008;28;20024;-81
2020/12/29 09:05:55;;;;;;;18.55;9.43;;;2.60;91.80;;;;;;5096097;28;20111;-81
2020/12/29 09:08:28;;;;;;;17.30;9.10;;;2.60;91.70;;;;;;5077698;28;20032;-81
2020/12/29 09:11:09;;;;;;;14.43;9.27;;;2.60;91.70;;;;;;5075441;28;20029;-81
2020/12/29 09:13:35;;;;;;;18.02;9.30;;;2.70;91.70;;;;;;5091112;28;20044;-81
2020/12/29 09:16:11;;;;;;;18.77;8.88;;;2.70;91.70;;;;;;5057555;28;20021;-81
2020/12/29 09:18:41;;;;;;;19.67;11.07;;;2.70;91.70;;;;;;5093529;28;20052;-81
2020/12/29 09:21:23;;;;;;;15.15;9.70;;;2.80;91.70;;;;;;5077495;28;20090;-81
2020/12/29 09:24:03;;;;;;;18.30;9.73;;;2.80;92.00;;;;;;5077228;28;20131;-81
2020/12/29 09:26:29;;;;;;;18.92;11.20;;;2.80;91.70;;;;;;5077430;28;20024;-80
2020/12/29 09:28:56;;;;;;;20.67;11.60;;;2.90;91.80;;;;;;5076775;28;20024;-80
2020/12/29 09:31:27;;;;;;;18.70;9.88;;;2.90;91.70;;;;;;5056886;28;20024;-82
2020/12/29 09:33:53;;;;;;;22.13;11.73;;;2.90;91.70;;;;;;5087120;28;20024;-81
2020/12/29 09:36:24;;;;;;;27.42;12.80;;;3.00;91.80;;;;;;5070120;28;20056;-83
2020/12/29 09:38:51;;;;;;;19.08;12.70;;;3.00;91.90;;;;;;5074868;28;20033;-83
2020/12/29 09:41:17;;;;;;;21.55;12.02;;;3.00;91.90;;;;;;5075336;28;20028;-83
2020/12/29 09:43:47;;;;;;;29.27;14.63;;;3.10;91.90;;;;;;5062244;28;20081;-83
2020/12/29 09:46:12;;;;;;;23.85;13.50;;;3.10;92.20;;;;;;5091036;28;20048;-83
2020/12/29 09:48:38;;;;;;;24.88;13.65;;;3.10;91.90;;;;;;5057489;28;20020;-83
2020/12/29 09:51:04;;;;;;;33.72;16.50;;;3.10;91.90;;;;;;5102776;28;20031;-82
2020/12/29 09:53:30;;;;;;;28.08;16.52;;;3.10;92.00;;;;;;5060444;28;20036;-83
2020/12/29 09:55:56;;;;;;;25.98;15.50;;;3.10;92.10;;;;;;5077290;28;20028;-83
2020/12/29 09:58:22;;;;;;;36.65;17.98;;;3.10;92.10;;;;;;5060772;28;20028;-83
2020/12/29 10:00:49;;;;;;;28.08;16.65;;;3.10;92.20;;;;;;5077272;28;20024;-83
2020/12/29 10:03:15;;;;;;;40.80;22.38;;;3.10;92.20;;;;;;5044178;28;20400;-83
2020/12/29 10:05:40;;;;;;;39.20;20.35;;;3.20;92.30;;;;;;5077006;28;20028;-83
2020/12/29 10:08:06;;;;;;;40.28;20.38;;;3.20;92.30;;;;;;5060451;28;20020;-83
2020/12/29 10:10:32;;;;;;;46.65;23.35;;;3.20;92.30;;;;;;5060118;28;20084;-83
2020/12/29 10:12:58;;;;;;;38.05;21.17;;;3.20;92.30;;;;;;5076701;28;20075;-83
2020/12/29 10:15:23;;;;;;;48.38;21.90;;;3.20;92.30;;;;;;5060319;28;20028;-83
2020/12/29 10:17:49;;;;;;;46.08;23.85;;;3.30;92.50;;;;;;5060407;28;20024;-83
2020/12/29 10:20:15;;;;;;;42.80;23.95;;;3.20;92.40;;;;;;5076773;28;20139;-83
2020/12/29 10:22:40;;;;;;;47.13;25.02;;;3.30;92.50;;;;;;5094753;28;20043;-84
2020/12/29 10:25:10;;;;;;;54.75;27.08;;;3.30;92.80;;;;;;5059585;28;20029;-83
2020/12/29 10:27:36;;;;;;;49.80;25.45;;;3.30;92.60;;;;;;5077376;28;20020;-83
2020/12/29 10:30:02;;;;;;;50.88;26.40;;;3.40;92.60;;;;;;5076558;28;20507;-83
2020/12/29 10:32:28;;;;;;;45.72;25.15;;;3.40;92.60;;;;;;5060164;28;20470;-83
2020/12/29 10:34:54;;;;;;;44.78;25.15;;;3.50;92.60;;;;;;5094682;28;20043;-84
2020/12/29 10:37:19;;;;;;;55.70;29.08;;;3.50;92.60;;;;;;5059693;28;20028;-83
2020/12/29 10:39:45;;;;;;;59.35;29.27;;;3.50;92.70;;;;;;5076078;28;20085;-83
2020/12/29 10:42:10;;;;;;;52.63;28.08;;;3.50;92.60;;;;;;5059685;28;20036;-83
2020/12/29 10:44:36;;;;;;;54.80;29.65;;;3.60;92.70;;;;;;5059720;28;20468;-83
2020/12/29 10:47:02;;;;;;;49.10;26.90;;;3.60;92.80;;;;;;5059401;28;20028;-83
2020/12/29 10:49:28;;;;;;;62.70;30.88;;;3.60;92.90;;;;;;5075058;28;20027;-84
2020/12/29 10:51:54;;;;;;;60.90;32.17;;;3.70;92.90;;;;;;5059374;28;20020;-83
2020/12/29 10:54:20;;;;;;;61.63;31.90;;;3.70;93.10;;;;;;5042812;28;20105;-84
2020/12/29 10:56:45;;;;;;;57.78;31.60;;;3.80;93.10;;;;;;5076132;28;20434;-84
2020/12/29 10:59:12;;;;;;;57.28;29.77;;;3.90;93.10;;;;;;5075849;28;20035;-84
2020/12/29 11:01:38;;;;;;;61.78;30.45;;;3.90;93.10;;;;;;5059571;28;20031;-84
2020/12/29 11:04:03;;;;;;;51.47;29.00;;;4.00;93.10;;;;;;5059167;28;20480;-83
2020/12/29 11:06:29;;;;;;;48.95;28.38;;;4.00;93.10;;;;;;5076096;28;20028;-83
2020/12/29 11:08:55;;;;;;;56.50;30.08;;;4.10;93.10;;;;;;5076070;28;20032;-83
2020/12/29 11:11:20;;;;;;;57.42;28.17;;;4.20;93.10;;;;;;5059478;28;20370;-84
2020/12/29 11:13:47;;;;;;;44.85;25.52;;;4.30;92.90;;;;;;5093842;28;20503;-84
2020/12/29 11:16:18;;;;;;;53.30;27.13;;;4.40;92.90;;;;;;5059427;28;20077;-84
2020/12/29 11:18:44;;;;;;;46.25;25.52;;;4.50;92.70;;;;;;5075996;28;20035;-84
2020/12/29 11:21:10;;;;;;;38.85;22.92;;;4.50;92.60;;;;;;5076104;28;20495;-84
2020/12/29 11:23:37;;;;;;;39.15;23.92;;;4.60;92.50;;;;;;5076165;28;20115;-84
2020/12/29 11:26:03;;;;;;;46.42;25.08;;;4.60;92.50;;;;;;5075909;28;20028;-84
2020/12/29 11:28:29;;;;;;;44.50;25.10;;;4.60;92.50;;;;;;5076110;28;20028;-84
2020/12/29 11:30:54;;;;;;;43.42;25.67;;;4.70;92.50;;;;;;5059316;28;20100;-84
2020/12/29 11:33:20;;;;;;;44.00;25.70;;;4.70;92.40;;;;;;5058536;28;20024;-78
2020/12/29 11:35:47;;;;;;;40.70;24.48;;;4.70;92.40;;;;;;5075702;28;20024;-78
2020/12/29 11:38:18;;;;;;;38.47;23.50;;;4.70;92.40;;;;;;5059032;28;20028;-78
2020/12/29 11:40:44;;;;;;;35.55;21.25;;;4.70;92.30;;;;;;5042237;28;20025;-78
2020/12/29 11:43:12;;;;;;;36.42;21.15;;;4.70;92.30;;;;;;5093274;28;20373;-78
2020/12/29 11:45:38;;;;;;;39.78;22.88;;;4.70;92.20;;;;;;5075285;28;20028;-78
2020/12/29 11:48:04;;;;;;;39.40;22.10;;;4.70;92.20;;;;;;5075274;28;20024;-78
2020/12/29 11:50:29;;;;;;;37.13;21.30;;;4.70;92.20;;;;;;5054418;28;20025;-78
2020/12/29 11:52:55;;;;;;;32.40;20.05;;;4.70;92.20;;;;;;5071729;28;20552;-77
2020/12/29 11:55:20;;;;;;;35.85;20.98;;;4.70;92.10;;;;;;5071893;28;20031;-77
2020/12/29 11:57:46;;;;;;;31.77;18.98;;;4.70;92.20;;;;;;5082434;28;20027;-77
2020/12/29 12:00:12;;;;;;;35.25;19.52;;;4.70;92.20;;;;;;5072457;28;20389;-77
2020/12/29 12:02:37;;;;;;;31.83;19.02;;;4.70;92.20;;;;;;5075658;28;20082;-77
2020/12/29 12:05:03;;;;;;;31.75;18.75;;;4.70;92.20;;;;;;5059113;28;20025;-77
2020/12/29 12:07:29;;;;;;;33.05;18.85;;;4.80;92.20;;;;;;5075861;28;20056;-77
2020/12/29 12:09:54;;;;;;;34.40;18.40;;;4.80;92.20;;;;;;5075661;28;20439;-77
2020/12/29 12:12:20;;;;;;;37.08;19.58;;;4.80;92.20;;;;;;5058865;28;20127;-77
2020/12/29 12:14:45;;;;;;;35.40;16.52;;;4.80;92.10;;;;;;5087788;28;20114;-82
2020/12/29 12:17:11;;;;;;;31.42;18.60;;;4.80;92.10;;;;;;5062316;28;20128;-83
2020/12/29 12:19:37;;;;;;;30.92;18.73;;;4.80;92.10;;;;;;5097080;28;20036;-83
2020/12/29 12:22:03;;;;;;;33.70;18.35;;;4.80;92.20;;;;;;5096520;28;20032;-83
2020/12/29 12:24:28;;;;;;;29.27;16.95;;;4.80;92.10;;;;;;5078921;28;20072;-83
2020/12/29 12:26:54;;;;;;;29.70;16.67;;;4.90;92.10;;;;;;5078687;28;20058;-83
2020/12/29 12:29:20;;;;;;;29.50;16.35;;;4.80;92.10;;;;;;5096865;28;20077;-83
2020/12/29 12:31:45;;;;;;;31.73;16.05;;;4.90;92.00;;;;;;5061324;28;20028;-81
2020/12/29 12:34:11;;;;;;;32.90;17.15;;;4.80;92.00;;;;;;5074608;28;20028;-81
2020/12/29 12:36:37;;;;;;;27.17;15.82;;;4.80;92.00;;;;;;5073042;28;20392;-81
2020/12/29 12:39:04;;;;;;;27.73;16.20;;;4.80;92.00;;;;;;5090615;28;20024;-81
2020/12/29 12:41:29;;;;;;;27.50;15.82;;;4.80;92.10;;;;;;5074623;28;20736;-81
2020/12/29 12:43:55;;;;;;;26.67;16.45;;;4.80;92.10;;;;;;5058239;28;20066;-81
2020/12/29 12:46:21;;;;;;;26.30;14.50;;;4.80;92.40;;;;;;5057726;28;20059;-81
2020/12/29 12:48:46;;;;;;;28.30;15.00;;;4.80;92.10;;;;;;5060066;28;20507;-81